Terminal Aerodrome Forecast
Issued by NWS

Home | Current Version | Previous Version | Text Only | Print | Product List | Glossary On
Versions: 1 2 3 4 5 6 7 8 9 10 11 12 13 14
997
FTUS44 KTSA 181125
TAFBVO
TAF
KBVO 181125Z 1812/1912 00000KT 4SM BR SCT050
      TEMPO 1812/1816 1SM BR VV005
     FM181800 15005KT P6SM OVC025
     FM190000 VRB03KT P6SM BKN015
     FM190600 00000KT 3SM BR OVC003=

USA.gov is the U.S. government's official web portal to all federal, state and local government web resources and services.